Welcome to Northern Hawkes Bay. New Zealand.
PWS Header
      nz Flag



Hit Counter


W3C Valid W3C Valid logo


    Wairoa

Select any of the Stations below to visit their websites.










Historic Data from Weather Underground
Select the location of interest below. Wairoa is the default. Please have patience, this Data is slow to load in.
Northern Hawkes Bay Historical Data
Daily Summary for May 24, 2017 Units:  English    Metric   Both
« Previous Day
Next Day »
Daily Weekly Monthly Yearly Custom
  High: Low: Average:
Temperature: 57.2 °F 50.9 °F 53.4 °F
Dew Point: 54.7 °F 49.6 °F 52 °F
Humidity: 99% 88% 95%
Wind Speed: 10.7mph 0mph 3.4mph
Wind Gust: 17.4mph - -
Wind- - West
Pressure: 30.2 in 30 in -
Precipitation: 0.27 in    
Historical Graphs
 
 
Tabular Data for May 24, 2017
Time Temperature Dew Point Pressure Wind Wind Speed Wind Gust Humidity Rainfall Rate (Hourly) solar
00:03 57.2 °F 54.3 °F 30 in NW 3.8 mph 5.4 mph 90% 0 in 30 W/m2
00:08 57 °F 54.3 °F 30 in NNW 2.2 mph 5.4 mph 91% 0 in 21 W/m2
00:13 57 °F 54.7 °F 30 in North 2.2 mph 5.4 mph 92% 0 in 23 W/m2
00:18 56.8 °F 54.7 °F 30 in North 1.6 mph 3.8 mph 92% 0 in 29 W/m2
00:23 56.7 °F 54.7 °F 30 in North 3.1 mph 5.4 mph 93% 0 in 25 W/m2
00:28 56.7 °F 54.7 °F 30 in North 3.1 mph 5.4 mph 93% 0 in 19 W/m2
00:33 56.7 °F 54.7 °F 30 in North 1.6 mph 3.8 mph 93% 0 in 12 W/m2
00:38 56.5 °F 54.5 °F 30 in North 2.2 mph 4.5 mph 93% 0 in 9 W/m2
00:43 56.3 °F 54.3 °F 30 in North 1.6 mph 4.5 mph 93% 0 in 7 W/m2
00:48 56.3 °F 54.3 °F 30 in North 0.7 mph 3.8 mph 93% 0 in 5 W/m2
00:53 56.1 °F 54.1 °F 30 in North 1.6 mph 4.5 mph 93% 0 in 4 W/m2
00:58 55.9 °F 54 °F 30 in North 1.6 mph 4.5 mph 93% 0 in 3 W/m2
01:03 55.8 °F 53.8 °F 30 in NNW 1.6 mph 3.8 mph 93% 0 in 1 W/m2
01:08 55.6 °F 53.6 °F 30 in NW 3.1 mph 3.8 mph 93% 0 in 0 W/m2
01:13 55.4 °F 53.4 °F 30 in WNW 1.6 mph 3.8 mph 93% 0 in 0 W/m2
01:18 55.2 °F 53.2 °F 30 in West 2.2 mph 3.8 mph 93% 0 in 0 W/m2
01:23 55.2 °F 53.2 °F 30 in NW 3.1 mph 4.5 mph 93% 0 in 0 W/m2
01:28 55 °F 53.4 °F 30 in NW 3.1 mph 5.4 mph 94% 0 in 0 W/m2
01:33 54.9 °F 53.2 °F 30 in NW 3.1 mph 5.4 mph 94% 0 in 0 W/m2
01:38 54.9 °F 53.4 °F 30 in NW 2.2 mph 5.4 mph 95% 0 in 0 W/m2
01:43 54.7 °F 53.2 °F 30 in NW 1.6 mph 4.5 mph 95% 0 in 0 W/m2
01:48 54.5 °F 53.1 °F 30 in NW 0.7 mph 3.1 mph 95% 0 in 0 W/m2
01:53 54.5 °F 53.1 °F 30.1 in Calm   3.1 mph 95% 0 in 0 W/m2
01:58 54.5 °F 53.1 °F 30 in NNW 0.7 mph 3.1 mph 95% 0 in 0 W/m2
02:03 54.5 °F 53.4 °F 30.1 in NNW 1.6 mph 2.2 mph 96% 0 in 0 W/m2
02:08 54.5 °F 53.4 °F 30.1 in North 1.6 mph 2.2 mph 96% 0 in 0 W/m2
02:13 54.5 °F 53.4 °F 30.1 in NNW 2.2 mph 3.1 mph 96% 0 in 0 W/m2
02:18 54.5 °F 53.4 °F 30.1 in NNW 0.7 mph 3.1 mph 96% 0 in 0 W/m2
02:23 54.5 °F 53.4 °F 30.1 in NNW 1.6 mph 3.1 mph 96% 0 in 0 W/m2
02:28 54.5 °F 53.8 °F 30.1 in NW 1.6 mph 3.8 mph 97% 0 in 0 W/m2
02:33 54.5 °F 53.8 °F 30.1 in NW 1.6 mph 3.8 mph 97% 0 in 0 W/m2
02:38 54.5 °F 53.8 °F 30.1 in NNW 1.6 mph 3.8 mph 97% 0 in 0 W/m2
02:41 54.5 °F 53.8 °F 30.1 in NNW 0.7 mph 3.8 mph 97% 0 in 0 W/m2
02:46 54.5 °F 53.8 °F 30.1 in North 1.6 mph 3.8 mph 97% 0 in 0 W/m2
02:51 54.5 °F 53.8 °F 30.1 in Calm   2.2 mph 97% 0 in 0 W/m2
02:56 54.5 °F 53.8 °F 30.1 in WNW 0.7 mph 2.2 mph 97% 0 in 0 W/m2
03:01 54.7 °F 54 °F 30.1 in SW 1.6 mph 3.1 mph 97% 0 in 0 W/m2
03:06 54.9 °F 54 °F 30.1 in South 5.4 mph 8.3 mph 97% 0 in 0 W/m2
03:11 54.9 °F 54 °F 30.1 in SSW 3.8 mph 8.3 mph 97% 0 in 0 W/m2
03:16 55 °F 54.1 °F 30.1 in SSW 2.2 mph 8.3 mph 97% 0 in 0 W/m2
03:21 55 °F 54.1 °F 30.1 in SSW 3.8 mph 7.6 mph 97% 0 in 0 W/m2
03:26 55 °F 54 °F 30.1 in SSW 8.3 mph 12.1 mph 96% 0 in 0 W/m2
03:31 55 °F 54 °F 30.1 in SSW 7.6 mph 14.5 mph 96% 0 in 0 W/m2
03:36 54.7 °F 53.2 °F 30.1 in SSW 10.7 mph 16.8 mph 95% 0.01 in 0 W/m2
03:41 54 °F 52.3 °F 30.1 in SW 8.3 mph 17.4 mph 94% 0.01 in 0 W/m2
03:46 53.6 °F 51.6 °F 30.1 in SW 6 mph 17.4 mph 93% 0.01 in 0 W/m2
03:51 53.4 °F 51.4 °F 30.1 in SW 4.5 mph 12.1 mph 93% 0.01 in 0 W/m2
03:56 53.2 °F 51.1 °F 30.1 in SW 1.6 mph 9.8 mph 92% 0.01 in 0 W/m2
04:01 53.2 °F 51.1 °F 30.1 in SW 3.8 mph 4.5 mph 92% 0.01 in 0 W/m2
04:06 53.1 °F 50.7 °F 30.1 in SSW 0.7 mph 4.5 mph 92% 0.01 in 0 W/m2
04:11 53.1 °F 50.7 °F 30.1 in WSW 2.2 mph 4.5 mph 92% 0.01 in 0 W/m2
04:16 53.1 °F 50.7 °F 30.1 in West 4.5 mph 6 mph 92% 0.01 in 0 W/m2
04:21 53.2 °F 51.1 °F 30.1 in West 2.2 mph 8.3 mph 92% 0.01 in 0 W/m2
04:27 53.2 °F 51.1 °F 30.1 in West 3.1 mph 8.3 mph 92% 0.01 in 0 W/m2
04:32 53.2 °F 51.1 °F 30.1 in West 1.6 mph 7.6 mph 92% 0.01 in 0 W/m2
04:37 53.2 °F 51.1 °F 30.1 in West 1.6 mph 5.4 mph 92% 0 in 0 W/m2
04:42 53.1 °F 50.7 °F 30.1 in West 3.1 mph 4.5 mph 92% 0 in 0 W/m2
04:47 52.7 °F 50.4 °F 30.1 in WNW 3.1 mph 5.4 mph 92% 0 in 0 W/m2
04:52 52.2 °F 49.8 °F 30.1 in NW 1.6 mph 6 mph 92% 0 in 0 W/m2
04:57 51.8 °F 49.6 °F 30.1 in NW 1.6 mph 6 mph 92% 0 in 0 W/m2
05:02 51.8 °F 49.6 °F 30.1 in Calm   3.8 mph 92% 0 in 0 W/m2
05:07 51.8 °F 49.6 °F 30.1 in NNW 0.7 mph 3.1 mph 92% 0 in 0 W/m2
05:12 51.6 °F 49.6 °F 30.1 in NNW 1.6 mph 3.8 mph 93% 0 in 0 W/m2
05:17 51.6 °F 49.6 °F 30.1 in North 1.6 mph 3.8 mph 93% 0 in 0 W/m2
05:22 51.6 °F 50 °F 30.1 in NNW 1.6 mph 3.1 mph 94% 0 in 0 W/m2
05:27 51.6 °F 50 °F 30.1 in NW 1.6 mph 3.1 mph 94% 0 in 0 W/m2
05:32 51.6 °F 50 °F 30.1 in NW 0.7 mph 3.1 mph 94% 0 in 0 W/m2
05:37 51.6 °F 50.2 °F 30.1 in NNW 2.2 mph 3.8 mph 95% 0 in 0 W/m2
05:42 51.6 °F 50.2 °F 30.1 in NNW 1.6 mph 3.8 mph 95% 0 in 0 W/m2
05:47 51.6 °F 50.2 °F 30.1 in NW 0.7 mph 3.8 mph 95% 0 in 0 W/m2
05:52 51.8 °F 50.2 °F 30.1 in NW 1.6 mph 3.1 mph 94% 0 in 0 W/m2
05:57 51.8 °F 50.4 °F 30.1 in NW 2.2 mph 4.5 mph 95% 0 in 0 W/m2
06:02 52 °F 50.5 °F 30.1 in NW 1.6 mph 4.5 mph 95% 0 in 0 W/m2
06:07 52 °F 50.4 °F 30.1 in WNW 0.7 mph 4.5 mph 94% 0 in 0 W/m2
06:12 52 °F 50.4 °F 30.1 in NW 1.6 mph 3.8 mph 94% 0 in 0 W/m2
06:17 52 °F 50.4 °F 30.1 in NNW 0.7 mph 3.1 mph 94% 0 in 0 W/m2
06:22 52 °F 50.4 °F 30.1 in NNW 1.6 mph 3.1 mph 94% 0 in 0 W/m2
06:27 52 °F 50.4 °F 30.1 in NNW 1.6 mph 3.1 mph 94% 0 in 0 W/m2
06:32 52 °F 50.4 °F 30.1 in NNW 2.2 mph 3.8 mph 94% 0 in 0 W/m2
06:37 51.8 °F 50.2 °F 30.1 in NNW 2.2 mph 3.8 mph 94% 0 in 0 W/m2
06:42 52 °F 50.4 °F 30.1 in NW 1.6 mph 3.8 mph 94% 0 in 0 W/m2
06:47 52 °F 50.4 °F 30.1 in NW 2.2 mph 3.8 mph 94% 0 in 0 W/m2
06:52 52 °F 50.4 °F 30.1 in NW 2.2 mph 4.5 mph 94% 0 in 0 W/m2
06:57 52 °F 50.4 °F 30.1 in NW 2.2 mph 4.5 mph 94% 0 in 0 W/m2
07:02 52 °F 50.4 °F 30.1 in NW 2.2 mph 4.5 mph 94% 0 in 0 W/m2
07:07 51.8 °F 50.2 °F 30.1 in NW 1.6 mph 4.5 mph 94% 0 in 0 W/m2
07:12 51.6 °F 50 °F 30.1 in NW 3.1 mph 4.5 mph 94% 0 in 0 W/m2
07:17 51.6 °F 50 °F 30.1 in NW 2.2 mph 4.5 mph 94% 0 in 0 W/m2
07:22 51.8 °F 49.8 °F 30.1 in NW 0.7 mph 5.4 mph 93% 0 in 0 W/m2
07:27 51.8 °F 49.8 °F 30.1 in NW 0.7 mph 5.4 mph 93% 0 in 0 W/m2
07:32 52.2 °F 50.2 °F 30.1 in WNW 2.2 mph 6.9 mph 93% 0 in 0 W/m2
07:37 52.3 °F 50.4 °F 30.1 in West 2.2 mph 6.9 mph 93% 0 in 0 W/m2
07:42 52.9 °F 50.9 °F 30.1 in West 1.6 mph 5.4 mph 93% 0 in 0 W/m2
07:47 53.1 °F 51.1 °F 30.1 in WNW 2.2 mph 4.5 mph 93% 0 in 0 W/m2
07:52 53.4 °F 51.4 °F 30.1 in West 3.8 mph 6 mph 93% 0 in 0 W/m2
07:57 53.6 °F 51.1 °F 30.1 in West 1.6 mph 7.6 mph 91% 0 in 0 W/m2
08:02 53.6 °F 51.1 °F 30.1 in West 2.2 mph 7.6 mph 91% 0 in 0 W/m2
08:07 53.8 °F 51.3 °F 30.1 in WSW 3.1 mph 6.9 mph 91% 0 in 0 W/m2
08:12 53.8 °F 50.9 °F 30.1 in West 3.1 mph 7.6 mph 90% 0 in 0 W/m2
08:17 53.8 °F 50.9 °F 30.1 in West 3.8 mph 10.7 mph 90% 0 in 0 W/m2
08:22 53.8 °F 50.5 °F 30.1 in West 3.1 mph 10.7 mph 89% 0 in 0 W/m2
08:27 53.8 °F 50.5 °F 30.1 in West 3.8 mph 7.6 mph 89% 0 in 0 W/m2
08:32 53.6 °F 50.4 °F 30.1 in West 3.8 mph 9.2 mph 89% 0 in 0 W/m2
08:37 53.6 °F 50.4 °F 30.1 in West 5.4 mph 9.8 mph 89% 0 in 0 W/m2
08:42 53.8 °F 50.5 °F 30.1 in West 3.8 mph 9.8 mph 89% 0 in 0 W/m2
08:47 53.6 °F 50.2 °F 30.1 in West 2.2 mph 9.8 mph 88% 0 in 0 W/m2
08:52 53.6 °F 50.2 °F 30.1 in West 3.1 mph 8.3 mph 88% 0 in 0 W/m2
08:57 53.6 °F 50.2 °F 30.1 in West 2.2 mph 6.9 mph 88% 0 in 0 W/m2
09:02 53.6 °F 50.2 °F 30.1 in West 1.6 mph 6 mph 88% 0 in 0 W/m2
09:07 53.6 °F 50.2 °F 30.1 in West 2.2 mph 7.6 mph 88% 0 in 0 W/m2
09:12 53.4 °F 50.4 °F 30.1 in West 3.1 mph 7.6 mph 89% 0 in 0 W/m2
09:17 53.4 °F 50.4 °F 30.1 in West 1.6 mph 6.9 mph 89% 0 in 0 W/m2
09:22 53.4 °F 50.4 °F 30.1 in West 2.2 mph 6.9 mph 89% 0 in 0 W/m2
09:27 53.4 °F 50.4 °F 30.1 in WNW 2.2 mph 6 mph 89% 0 in 0 W/m2
09:32 53.2 °F 50.2 °F 30.1 in WNW 1.6 mph 6.9 mph 89% 0 in 0 W/m2
09:37 53.2 °F 50.2 °F 30.1 in West 5.4 mph 7.6 mph 89% 0 in 0 W/m2
09:42 53.2 °F 50.2 °F 30.1 in WSW 4.5 mph 7.6 mph 89% 0 in 0 W/m2
09:47 53.4 °F 50.4 °F 30.1 in West 6.9 mph 9.2 mph 89% 0 in 0 W/m2
09:52 53.2 °F 50.4 °F 30.1 in West 1.6 mph 9.2 mph 90% 0 in 0 W/m2
09:57 53.2 °F 50.4 °F 30.1 in West 2.2 mph 8.3 mph 90% 0 in 0 W/m2
10:02 53.1 °F 50.5 °F 30.1 in WNW 2.2 mph 6.9 mph 91% 0 in 0 W/m2
10:07 52.9 °F 50.4 °F 30.1 in West 1.6 mph 5.4 mph 91% 0 in 0 W/m2
10:12 52.9 °F 50.4 °F 30.1 in West 0.7 mph 5.4 mph 91% 0 in 0 W/m2
10:17 52.7 °F 50.2 °F 30.1 in West 3.8 mph 6.9 mph 91% 0 in 0 W/m2
10:22 52.7 °F 50.4 °F 30.1 in West 3.1 mph 6.9 mph 92% 0 in 0 W/m2
10:27 52.7 °F 50.4 °F 30.1 in WSW 3.1 mph 6 mph 92% 0 in 0 W/m2
10:32 52.5 °F 50.4 °F 30.1 in West 4.5 mph 8.3 mph 92% 0 in 0 W/m2
10:37 52.3 °F 50.4 °F 30.1 in West 3.1 mph 8.3 mph 93% 0 in 0 W/m2
10:42 52.2 °F 50.2 °F 30.1 in WNW 1.6 mph 7.6 mph 93% 0 in 0 W/m2
10:47 52 °F 50 °F 30.1 in NW 1.6 mph 5.4 mph 93% 0 in 0 W/m2
10:52 51.6 °F 50 °F 30.1 in North 1.6 mph 3.8 mph 94% 0 in 0 W/m2
10:57 51.4 °F 50.2 °F 30.1 in NNW 2.2 mph 3.8 mph 95% 0 in 0 W/m2
11:02 51.3 °F 49.8 °F 30.1 in NW 3.8 mph 5.4 mph 95% 0 in 0 W/m2
11:07 51.1 °F 50 °F 30.1 in NNW 3.8 mph 6.9 mph 96% 0 in 0 W/m2
11:12 50.9 °F 49.8 °F 30.1 in NNW 3.1 mph 6.9 mph 96% 0 in 0 W/m2
11:17 50.9 °F 50.2 °F 30.1 in NW 1.6 mph 6.9 mph 97% 0 in 0 W/m2
11:22 50.9 °F 50.2 °F 30.1 in NW 3.1 mph 5.4 mph 97% 0 in 0 W/m2
11:27 50.9 °F 50.2 °F 30.1 in NW 2.2 mph 6 mph 97% 0 in 0 W/m2
11:32 50.9 °F 50.4 °F 30.1 in NW 3.1 mph 6 mph 98% 0 in 0 W/m2
11:37 51.1 °F 50.5 °F 30.1 in WNW 3.1 mph 7.6 mph 98% 0 in 0 W/m2
11:42 51.3 °F 50.7 °F 30.1 in WNW 2.2 mph 7.6 mph 98% 0 in 0 W/m2
11:47 51.4 °F 51.3 °F 30.1 in WNW 1.6 mph 6 mph 99% 0 in 0 W/m2
11:52 51.8 °F 51.3 °F 30.1 in WNW 3.8 mph 10.7 mph 98% 0 in 0 W/m2
11:57 52.2 °F 51.6 °F 30.1 in West 7.6 mph 10.7 mph 98% 0 in 0 W/m2
12:02 52.3 °F 51.4 °F 30.1 in West 5.4 mph 9.8 mph 97% 0 in 0 W/m2
12:07 52.2 °F 51.3 °F 30.1 in WNW 1.6 mph 9.8 mph 97% 0 in 0 W/m2
12:12 52.3 °F 51.4 °F 30.1 in WNW 2.2 mph 8.3 mph 97% 0 in 0 W/m2
12:17 52.3 °F 51.4 °F 30.1 in West 4.5 mph 9.8 mph 97% 0 in 0 W/m2
12:22 52.5 °F 51.6 °F 30.1 in West 4.5 mph 9.8 mph 97% 0 in 0 W/m2
12:27 52.5 °F 51.6 °F 30.1 in West 2.2 mph 7.6 mph 97% 0 in 0 W/m2
12:32 52.5 °F 51.6 °F 30.1 in West 1.6 mph 8.3 mph 97% 0 in 0 W/m2
12:37 52.5 °F 51.6 °F 30.1 in West 4.5 mph 8.3 mph 97% 0 in 0 W/m2
12:42 52.7 °F 52 °F 30.1 in West 3.8 mph 7.6 mph 97% 0 in 0 W/m2
12:47 52.7 °F 52 °F 30.1 in West 3.8 mph 11.4 mph 97% 0 in 0 W/m2
12:52 52.7 °F 52 °F 30.1 in West 9.8 mph 11.4 mph 97% 0 in 0 W/m2
12:57 52.7 °F 52 °F 30.1 in West 5.4 mph 11.4 mph 97% 0 in 0 W/m2
13:02 52.7 °F 52 °F 30.1 in West 5.4 mph 13 mph 97% 0 in 0 W/m2
13:07 52.5 °F 51.6 °F 30.1 in West 3.8 mph 13 mph 97% 0 in 0 W/m2
13:12 52.5 °F 51.6 °F 30.1 in West 7.6 mph 15.2 mph 97% 0 in 0 W/m2
13:17 52.5 °F 51.6 °F 30.1 in West 8.3 mph 15.2 mph 97% 0 in 0 W/m2
13:22 52.5 °F 51.6 °F 30.1 in West 5.4 mph 12.1 mph 97% 0 in 0 W/m2
13:27 52.5 °F 51.6 °F 30.1 in WSW 8.3 mph 12.1 mph 97% 0 in 0 W/m2
13:32 52.5 °F 51.6 °F 30.1 in WSW 6 mph 13 mph 97% 0 in 0 W/m2
13:37 52.5 °F 51.6 °F 30.1 in West 4.5 mph 13 mph 97% 0 in 0 W/m2
13:42 52.5 °F 51.6 °F 30.1 in West 3.8 mph 12.1 mph 97% 0 in 0 W/m2
13:47 52.5 °F 51.6 °F 30.1 in West 6 mph 12.1 mph 97% 0 in 0 W/m2
13:52 52.5 °F 51.6 °F 30.1 in West 2.2 mph 10.7 mph 97% 0 in 0 W/m2
13:57 52.5 °F 51.6 °F 30.1 in WSW 4.5 mph 9.2 mph 97% 0 in 0 W/m2
14:02 52.5 °F 51.6 °F 30.1 in West 2.2 mph 9.2 mph 97% 0 in 0 W/m2
14:07 52.3 °F 51.4 °F 30.1 in WNW 2.2 mph 9.2 mph 97% 0 in 0 W/m2
14:12 52.3 °F 51.4 °F 30.1 in WNW 3.8 mph 4.5 mph 97% 0.02 in 0 W/m2
14:17 52.3 °F 51.4 °F 30.1 in WNW 1.6 mph 5.4 mph 97% 0.02 in 0 W/m2
14:22 52.5 °F 51.6 °F 30.1 in WSW 6 mph 12.1 mph 97% 0.02 in 0 W/m2
14:27 52.5 °F 51.6 °F 30.1 in WSW 9.8 mph 13 mph 97% 0.02 in 0 W/m2
14:32 52.5 °F 51.6 °F 30.1 in WSW 7.6 mph 13 mph 97% 0.02 in 0 W/m2
14:37 52.3 °F 51.8 °F 30.1 in WSW 6 mph 13.6 mph 98% 0.02 in 0 W/m2
14:42 52.3 °F 51.8 °F 30.1 in WSW 4.5 mph 13.6 mph 98% 0.02 in 0 W/m2
14:47 52.3 °F 51.8 °F 30.1 in West 3.8 mph 13 mph 98% 0.02 in 0 W/m2
14:52 52.3 °F 51.8 °F 30.1 in WSW 8.3 mph 12.1 mph 98% 0.02 in 0 W/m2
14:58 52.3 °F 51.8 °F 30.1 in West 9.8 mph 13 mph 98% 0.02 in 0 W/m2
15:03 52.3 °F 51.8 °F 30.1 in West 9.2 mph 13 mph 98% 0.02 in 0 W/m2
15:08 52.3 °F 51.8 °F 30.1 in WSW 6 mph 12.1 mph 98% 0.02 in 0 W/m2
15:13 52.5 °F 52 °F 30.1 in West 6 mph 14.5 mph 98% 0 in 1 W/m2
15:18 52.5 °F 52 °F 30.1 in West 5.4 mph 14.5 mph 98% 0 in 3 W/m2
15:23 52.5 °F 52 °F 30.1 in West 4.5 mph 13.6 mph 98% 0 in 3 W/m2
15:28 52.5 °F 52 °F 30.1 in WNW 4.5 mph 11.4 mph 98% 0 in 3 W/m2
15:33 52.7 °F 52.2 °F 30.1 in West 5.4 mph 13 mph 98% 0 in 3 W/m2
15:38 52.5 °F 52 °F 30.1 in West 4.5 mph 13 mph 98% 0.01 in 3 W/m2
15:43 52.5 °F 52 °F 30.1 in West 5.4 mph 13 mph 98% 0.01 in 2 W/m2
15:48 52.5 °F 52 °F 30.1 in WSW 8.3 mph 9.8 mph 98% 0.01 in 6 W/m2
15:53 52.5 °F 52 °F 30.1 in WSW 6 mph 13.6 mph 98% 0.01 in 4 W/m2
15:58 52.5 °F 52 °F 30.2 in SW 6 mph 13.6 mph 98% 0.01 in 10 W/m2
16:03 52.5 °F 52 °F 30.1 in SSW 4.5 mph 9.8 mph 98% 0.01 in 8 W/m2
16:08 52.7 °F 52.2 °F 30.1 in SW 2.2 mph 9.2 mph 98% 0.01 in 9 W/m2
16:13 52.9 °F 52.3 °F 30.1 in WSW 6 mph 15.2 mph 98% 0.02 in 9 W/m2
16:18 52.9 °F 52.3 °F 30.1 in WSW 2.2 mph 15.2 mph 98% 0.02 in 7 W/m2
16:23 52.7 °F 52.2 °F 30.2 in WSW 2.2 mph 11.4 mph 98% 0.02 in 22 W/m2
16:28 52.7 °F 52 °F 30.1 in West 3.1 mph 9.2 mph 97% 0.02 in 25 W/m2
16:33 52.7 °F 52 °F 30.2 in WNW 2.2 mph 9.2 mph 97% 0.04 in 14 W/m2
16:38 52.5 °F 52 °F 30.2 in West 0.7 mph 9.2 mph 98% 0.04 in 16 W/m2
16:43 52.3 °F 51.8 °F 30.2 in Calm   4.5 mph 98% 0.04 in 16 W/m2
16:48 52.3 °F 51.8 °F 30.2 in NNW 2.2 mph 3.8 mph 98% 0.04 in 21 W/m2
16:53 52.5 °F 52 °F 30.2 in West 3.8 mph 7.6 mph 98% 0.04 in 21 W/m2
16:58 52.5 °F 52 °F 30.2 in West 2.2 mph 7.6 mph 98% 0.04 in 43 W/m2
17:03 52.5 °F 52 °F 30.2 in West 4.5 mph 7.6 mph 98% 0.04 in 49 W/m2
17:08 52.5 °F 52 °F 30.2 in WSW 4.5 mph 10.7 mph 98% 0.04 in 55 W/m2
17:13 52.5 °F 52 °F 30.1 in WSW 4.5 mph 10.7 mph 98% 0.02 in 53 W/m2
17:18 52.5 °F 52 °F 30.2 in WSW 4.5 mph 8.3 mph 98% 0.02 in 57 W/m2
17:23 52.7 °F 52.2 °F 30.2 in WSW 6 mph 8.3 mph 98% 0.02 in 91 W/m2
17:28 52.9 °F 52.3 °F 30.2 in West 4.5 mph 8.3 mph 98% 0.02 in 102 W/m2
17:33 53.1 °F 52.5 °F 30.2 in West 5.4 mph 8.3 mph 98% 0.01 in 76 W/m2
17:38 53.1 °F 52.5 °F 30.2 in West 3.1 mph 9.8 mph 98% 0.01 in 49 W/m2
17:43 53.1 °F 52.5 °F 30.2 in WSW 3.1 mph 9.8 mph 98% 0.01 in 53 W/m2
17:48 53.1 °F 52.5 °F 30.2 in WSW 4.5 mph 11.4 mph 98% 0.04 in 60 W/m2
17:53 53.1 °F 52.5 °F 30.2 in WSW 5.4 mph 11.4 mph 98% 0.05 in 92 W/m2
17:58 53.2 °F 52.7 °F 30.2 in WSW 3.8 mph 9.8 mph 98% 0.05 in 100 W/m2
18:03 53.6 °F 52.9 °F 30.2 in WSW 2.2 mph 8.3 mph 97% 0.05 in 122 W/m2
18:08 54 °F 53.1 °F 30.2 in West 1.6 mph 6 mph 97% 0.05 in 156 W/m2
18:13 54.3 °F 53.4 °F 30.2 in West 2.2 mph 6 mph 97% 0.05 in 151 W/m2
18:18 54.7 °F 54 °F 30.2 in West 1.6 mph 6 mph 97% 0.05 in 141 W/m2
18:23 54.7 °F 54 °F 30.2 in West 4.5 mph 11.4 mph 97% 0.05 in 70 W/m2
18:28 54.5 °F 53.8 °F 30.2 in WSW 1.6 mph 11.4 mph 97% 0.05 in 45 W/m2
18:33 54.1 °F 53.1 °F 30.2 in SSW 4.5 mph 7.6 mph 96% 0.06 in 46 W/m2
18:38 54 °F 52.5 °F 30.2 in South 3.1 mph 7.6 mph 95% 0.07 in 39 W/m2
18:43 53.8 °F 52.3 °F 30.2 in SSW 6.9 mph 13.6 mph 95% 0.07 in 47 W/m2
18:48 53.6 °F 52.5 °F 30.2 in SSW 5.4 mph 13.6 mph 96% 0.06 in 63 W/m2
18:53 53.6 °F 52.5 °F 30.2 in SSW 5.4 mph 9.8 mph 96% 0.06 in 107 W/m2
18:58 53.6 °F 52.5 °F 30.2 in SW 3.1 mph 8.3 mph 96% 0.06 in 120 W/m2
19:03 53.8 °F 53.1 °F 30.2 in WSW 3.8 mph 8.3 mph 97% 0.07 in 116 W/m2
19:08 54 °F 53.1 °F 30.2 in SW 3.8 mph 6 mph 97% 0.07 in 88 W/m2
19:13 53.8 °F 53.1 °F 30.2 in SW 6 mph 8.3 mph 97% 0.07 in 91 W/m2
19:18 53.8 °F 53.1 °F 30.2 in WSW 6 mph 8.3 mph 97% 0.07 in 118 W/m2
19:23 54.1 °F 53.2 °F 30.2 in WSW 5.4 mph 8.3 mph 97% 0.07 in 155 W/m2
19:28 54.3 °F 53.4 °F 30.2 in WSW 3.8 mph 8.3 mph 97% 0.07 in 127 W/m2
19:33 54.3 °F 53.4 °F 30.2 in WSW 4.5 mph 8.3 mph 97% 0.06 in 125 W/m2
19:38 54.5 °F 53.8 °F 30.2 in WSW 6 mph 7.6 mph 97% 0.05 in 146 W/m2
19:48 54.5 °F 53.8 °F 30.2 in WSW 3.8 mph 10.7 mph 97% 0.04 in 107 W/m2
19:53 54.5 °F 53.8 °F 30.2 in WSW 6 mph 9.2 mph 97% 0.02 in 142 W/m2
19:58 54.3 °F 53.2 °F 30.2 in WSW 6 mph 9.8 mph 96% 0.02 in 153 W/m2
20:03 54.3 °F 53.2 °F 30.2 in WSW 6 mph 9.8 mph 96% 0.02 in 126 W/m2
20:08 54.1 °F 53.1 °F 30.2 in WSW 3.1 mph 9.2 mph 96% 0.02 in 103 W/m2
20:13 54.5 °F 53.8 °F 30.2 in SW 1.6 mph 7.6 mph 97% 0.04 in 117 W/m2
20:18 54.5 °F 53.8 °F 30.2 in SW 3.1 mph 5.4 mph 97% 0.04 in 127 W/m2
20:23 54.3 °F 53.4 °F 30.2 in SW 7.6 mph 9.2 mph 97% 0.05 in 149 W/m2
20:28 54.3 °F 53.4 °F 30.2 in SW 3.8 mph 9.2 mph 97% 0.05 in 153 W/m2
20:33 54.3 °F 53.4 °F 30.2 in SW 6 mph 9.8 mph 97% 0.06 in 146 W/m2
20:38 54.1 °F 53.2 °F 30.2 in WSW 5.4 mph 10.7 mph 97% 0.05 in 164 W/m2
20:43 54.3 °F 53.4 °F 30.2 in WSW 4.5 mph 10.7 mph 97% 0.05 in 179 W/m2
20:44 54.3 °F 53.4 °F 30.2 in WSW 4.5 mph 10.7 mph 97% 0.05 in 176 W/m2
20:50 54.5 °F 53.8 °F 30.2 in WSW 6.9 mph 9.8 mph 97% 0.05 in 202 W/m2
20:55 54.5 °F 53.8 °F 30.2 in SW 7.6 mph 9.8 mph 97% 0.05 in 195 W/m2
21:00 54.5 °F 53.8 °F 30.2 in SW 3.8 mph 9.8 mph 97% 0.06 in 164 W/m2
21:05 54.5 °F 53.8 °F 30.2 in WSW 6 mph 10.7 mph 97% 0.05 in 131 W/m2
21:10 54.5 °F 53.8 °F 30.2 in WSW 6 mph 10.7 mph 97% 0.04 in 114 W/m2
21:15 54.1 °F 53.2 °F 30.2 in WSW 3.8 mph 9.8 mph 97% 0.04 in 117 W/m2
21:20 54.1 °F 53.2 °F 30.2 in SW 6 mph 9.8 mph 97% 0.02 in 128 W/m2
21:26 54.3 °F 53.4 °F 30.2 in SW 3.1 mph 7.6 mph 97% 0.02 in 114 W/m2
21:28 54.3 °F 53.4 °F 30.2 in SW 4.5 mph 7.6 mph 97% 0.02 in 115 W/m2
21:33 54.3 °F 53.4 °F 30.2 in WSW 4.5 mph 6.9 mph 97% 0.01 in 115 W/m2
21:38 54.3 °F 53.4 °F 30.2 in West 5.4 mph 9.2 mph 97% 0.01 in 125 W/m2
21:43 54.1 °F 53.2 °F 30.2 in WSW 3.1 mph 9.2 mph 97% 0.01 in 115 W/m2
21:48 54.3 °F 53.4 °F 30.2 in SW 2.2 mph 9.2 mph 97% 0.01 in 140 W/m2
21:53 54.3 °F 53.4 °F 30.2 in SW 5.4 mph 6.9 mph 97% 0.01 in 148 W/m2
21:58 54.5 °F 53.8 °F 30.2 in SW 3.8 mph 6.9 mph 97% 0.01 in 147 W/m2
22:03 54.5 °F 53.8 °F 30.2 in SW 4.5 mph 6.9 mph 97% 0 in 123 W/m2
22:08 54.5 °F 53.8 °F 30.2 in SW 1.6 mph 6.9 mph 97% 0 in 118 W/m2
22:13 54.5 °F 53.8 °F 30.2 in SW 2.2 mph 7.6 mph 97% 0.01 in 112 W/m2
22:18 54.5 °F 53.8 °F 30.2 in SW 6 mph 9.2 mph 97% 0.01 in 115 W/m2
22:23 54.5 °F 53.8 °F 30.2 in SW 6 mph 9.2 mph 97% 0.01 in 122 W/m2
22:28 54.3 °F 53.4 °F 30.2 in SW 5.4 mph 9.2 mph 97% 0.01 in 120 W/m2
22:33 54.5 °F 53.8 °F 30.2 in SW 5.4 mph 9.2 mph 97% 0.01 in 112 W/m2
22:38 54.5 °F 53.8 °F 30.2 in SW 3.1 mph 6.9 mph 97% 0.01 in 114 W/m2
22:43 54.5 °F 53.8 °F 30.2 in SW 3.8 mph 6.9 mph 97% 0.01 in 122 W/m2
22:48 54.9 °F 53.8 °F 30.2 in SW 4.5 mph 6.9 mph 96% 0.01 in 112 W/m2
22:53 55 °F 54 °F 30.2 in SW 3.8 mph 6.9 mph 96% 0.01 in 107 W/m2
22:58 55.2 °F 54.1 °F 30.2 in SW 3.8 mph 6 mph 96% 0.01 in 98 W/m2
23:03 55.2 °F 53.8 °F 30.2 in SW 4.5 mph 6 mph 95% 0.01 in 101 W/m2
23:08 55.4 °F 54 °F 30.2 in SW 1.6 mph 6 mph 95% 0.01 in 112 W/m2
23:13 55.8 °F 54.3 °F 30.2 in WSW 3.1 mph 5.4 mph 95% 0 in 112 W/m2
23:18 55.6 °F 54 °F 30.2 in SW 4.5 mph 5.4 mph 94% 0 in 130 W/m2
23:23 55.4 °F 53.4 °F 30.2 in SW 3.8 mph 5.4 mph 93% 0 in 120 W/m2
23:28 55.6 °F 53.6 °F 30.2 in WSW 3.8 mph 6 mph 93% 0 in 111 W/m2
23:38 55.9 °F 53.4 °F 30.2 in SW 2.2 mph 5.4 mph 91% 0 in 82 W/m2
23:43 55.8 °F 53.2 °F 30.2 in SW 0.7 mph 4.5 mph 91% 0 in 85 W/m2
23:48 55.9 °F 53.4 °F 30.2 in SW 1.6 mph 3.8 mph 91% 0 in 71 W/m2
23:53 55.9 °F 53.4 °F 30.2 in Calm   3.8 mph 91% 0 in 62 W/m2
23:58 55.8 °F 53.2 °F 30.2 in SW 0.7 mph 3.1 mph 91% 0 in 48 W/m2
Northern Hawkes Bay. New Zealand Historic Data
Compliments of Weather Underground - 2 mb